Time;durP1;ratioP1;P1;durP2;ratioP2;P2;SDS_P1;SDS_P2;PMS_P1;PMS_P2;Temp;Humidity;BMP_temperature;BMP_pressure;BME280_temperature;BME280_humidity;BME280_pressure;Samples;Min_cycle;Max_cycle;Signal;HPM_P1;HPM_P2
2022/01/27 00:06:36;;;;;;;28.17;13.18;;;;;;;3.32;74.06;101021.75;4971764;28;20067;-81
2022/01/27 00:11:48;;;;;;;31.33;13.43;;;;;;;3.21;73.97;101002.13;4957233;29;20392;-81
2022/01/27 00:14:16;;;;;;;30.48;13.00;;;;;;;3.50;73.39;100990.69;4971547;28;20412;-80
2022/01/27 00:16:51;;;;;;;32.75;14.02;;;;;;;3.46;72.97;101010.38;4956763;28;20106;-82
2022/01/27 00:19:17;;;;;;;34.80;14.20;;;;;;;3.38;73.62;100989.16;4970522;28;20086;-81
2022/01/27 00:21:45;;;;;;;36.78;14.20;;;;;;;3.59;72.47;100988.19;4956806;28;20436;-81
2022/01/27 00:24:10;;;;;;;28.38;12.05;;;;;;;3.63;72.60;100989.75;4955400;29;20054;-80
2022/01/27 00:26:36;;;;;;;30.45;13.10;;;;;;;3.54;72.83;100977.38;4956972;28;20107;-80
2022/01/27 00:29:03;;;;;;;25.70;12.30;;;;;;;3.59;72.89;100977.72;4956874;28;20030;-82
2022/01/27 00:31:30;;;;;;;29.75;13.65;;;;;;;3.58;72.38;100973.31;4971327;28;20405;-80
2022/01/27 00:33:56;;;;;;;31.00;14.27;;;;;;;3.44;73.12;100970.59;4956422;28;20110;-81
2022/01/27 00:36:21;;;;;;;33.17;15.35;;;;;;;3.46;73.08;100966.16;4939034;29;20106;-81
2022/01/27 00:38:49;;;;;;;30.83;13.65;;;;;;;3.38;73.25;100967.41;4970469;28;20114;-80
2022/01/27 00:41:19;;;;;;;36.20;15.18;;;;;;;3.55;72.64;100951.63;4955373;28;20031;-80
2022/01/27 00:43:46;;;;;;;34.53;13.75;;;;;;;3.40;72.73;100953.72;4954860;29;20035;-81
2022/01/27 00:46:15;;;;;;;33.60;13.80;;;;;;;3.46;73.17;100971.78;4954384;29;20030;-81
2022/01/27 00:48:48;;;;;;;29.67;13.32;;;;;;;3.51;73.09;100961.28;4970273;28;20041;-81
2022/01/27 00:51:20;;;;;;;33.80;14.48;;;;;;;3.59;72.67;100972.09;4953868;29;20055;-82
2022/01/27 00:54:01;;;;;;;35.65;13.10;;;;;;;3.43;73.11;100969.81;4955206;29;20503;-81
2022/01/27 00:56:47;;;;;;;32.60;13.18;;;;;;;3.41;73.31;100949.69;4964704;28;20047;-80
2022/01/27 01:02:38;;;;;;;32.40;13.63;;;;;;;3.30;74.15;100976.34;4968928;28;20082;-80
2022/01/27 01:07:38;;;;;;;30.45;15.13;;;;;;;3.43;74.08;100964.16;4955427;29;20129;-80
2022/01/27 01:15:29;;;;;;;32.70;13.02;;;;;;;3.40;73.58;100941.69;4955804;29;20401;-79
2022/01/27 01:20:53;;;;;;;33.95;13.40;;;;;;;3.67;72.72;100953.09;4955448;29;20043;-81
2022/01/27 01:31:47;;;;;;;30.70;12.45;;;;;;;3.61;72.84;100930.22;4956024;29;20046;-81
2022/01/27 01:34:27;;;;;;;32.35;13.32;;;;;;;3.54;72.94;100935.13;4955424;28;20031;-80
2022/01/27 01:39:21;;;;;;;25.00;12.27;;;;;;;3.51;72.89;100930.31;4955996;28;20046;-80
2022/01/27 01:41:47;;;;;;;31.00;13.18;;;;;;;3.57;72.57;100937.09;4970321;28;20122;-80
2022/01/27 01:44:13;;;;;;;31.52;14.23;;;;;;;3.51;72.87;100944.38;4970188;28;20152;-80
2022/01/27 01:46:39;;;;;;;35.40;14.43;;;;;;;3.42;73.59;100936.41;4953864;29;20082;-80
2022/01/27 01:49:06;;;;;;;30.02;13.75;;;;;;;3.53;72.83;100937.13;4955938;28;20027;-80
2022/01/27 01:51:36;;;;;;;26.80;12.38;;;;;;;3.55;72.92;100931.91;4937713;29;20066;-81
2022/01/27 01:54:02;;;;;;;28.75;12.95;;;;;;;3.52;72.79;100924.25;4970075;28;20045;-81
2022/01/27 01:56:28;;;;;;;29.23;12.07;;;;;;;3.54;72.49;100904.94;4955149;28;20487;-80
2022/01/27 01:58:54;;;;;;;28.90;12.82;;;;;;;3.52;72.78;100913.00;4970112;28;20035;-80
2022/01/27 02:01:20;;;;;;;31.40;13.55;;;;;;;3.56;72.73;100908.13;4956012;28;20031;-81
2022/01/27 02:03:54;;;;;;;25.52;11.60;;;;;;;3.59;72.33;100901.69;4970037;28;20445;-80
2022/01/27 02:06:27;;;;;;;29.38;13.32;;;;;;;3.54;72.45;100902.13;4955296;28;20027;-81
2022/01/27 02:20:08;;;;;;;27.17;12.77;;;;;;;3.50;72.86;100912.63;4957716;29;20109;-79
2022/01/27 02:22:42;;;;;;;30.08;13.13;;;;;;;3.50;73.11;100923.09;4941968;29;20023;-81
2022/01/27 02:25:17;;;;;;;29.15;13.70;;;;;;;3.41;73.29;100932.00;4958694;28;20385;-80
2022/01/27 02:27:44;;;;;;;29.67;12.73;;;;;;;3.51;73.14;100924.66;4957507;29;20027;-80
2022/01/27 02:30:11;;;;;;;28.10;12.45;;;;;;;3.52;73.04;100924.25;4957349;29;20035;-79
2022/01/27 02:32:40;;;;;;;26.98;13.55;;;;;;;3.55;73.08;100929.09;4957194;29;20035;-79
2022/01/27 02:35:06;;;;;;;27.60;12.60;;;;;;;3.60;72.96;100922.97;4972158;28;20037;-80
2022/01/27 02:37:32;;;;;;;32.42;12.95;;;;;;;3.52;73.08;100918.63;4957630;28;20118;-80
2022/01/27 02:39:58;;;;;;;29.98;12.80;;;;;;;3.54;73.34;100913.41;4972869;28;20023;-79
2022/01/27 02:42:35;;;;;;;21.48;11.18;;;;;;;3.62;73.17;100916.94;4956411;29;20046;-79
2022/01/27 02:45:08;;;;;;;26.35;12.80;;;;;;;3.72;72.64;100908.38;4956006;29;20031;-78
2022/01/27 02:47:34;;;;;;;27.48;11.85;;;;;;;3.71;72.61;100901.16;4956113;29;20442;-78
2022/01/27 02:50:01;;;;;;;25.13;11.13;;;;;;;3.66;72.60;100895.97;4972886;28;20062;-79
2022/01/27 02:52:27;;;;;;;22.95;11.45;;;;;;;3.72;72.48;100890.69;4958438;28;20110;-80
2022/01/27 02:54:55;;;;;;;26.30;11.70;;;;;;;3.75;72.46;100887.81;4958177;28;20031;-79
2022/01/27 02:57:21;;;;;;;23.55;10.80;;;;;;;3.73;71.98;100892.28;4956663;28;20053;-80
2022/01/27 02:59:49;;;;;;;24.27;11.27;;;;;;;3.73;72.55;100898.72;4956475;29;20035;-79
2022/01/27 03:02:16;;;;;;;23.83;10.38;;;;;;;3.66;73.05;100893.16;4958315;28;20515;-80
2022/01/27 03:04:42;;;;;;;25.95;10.43;;;;;;;3.66;72.80;100884.69;4972856;28;20038;-81
2022/01/27 03:07:09;;;;;;;23.27;9.65;;;;;;;3.76;72.85;100880.16;4956868;29;20023;-81
2022/01/27 03:09:56;;;;;;;23.02;11.20;;;;;;;3.91;71.85;100878.81;4958374;28;20063;-80
2022/01/27 03:12:24;;;;;;;24.17;11.65;;;;;;;3.78;72.33;100889.81;4956662;29;20179;-79
2022/01/27 03:14:50;;;;;;;23.63;10.02;;;;;;;3.75;72.59;100872.97;4957140;29;20041;-80
2022/01/27 03:17:18;;;;;;;22.25;11.13;;;;;;;3.78;72.38;100872.13;4958495;28;20039;-80
2022/01/27 03:19:44;;;;;;;26.02;10.50;;;;;;;3.84;71.99;100865.63;4957899;28;20044;-81
2022/01/27 03:22:13;;;;;;;23.20;10.82;;;;;;;3.79;72.30;100880.16;4972257;28;20058;-80
2022/01/27 03:24:38;;;;;;;22.15;11.18;;;;;;;3.74;72.70;100865.72;4957701;28;20078;-80
2022/01/27 03:27:13;;;;;;;26.80;12.55;;;;;;;3.68;72.82;100865.38;4957714;28;20023;-80
2022/01/27 03:29:38;;;;;;;21.95;10.32;;;;;;;3.72;72.93;100860.50;4941410;29;20059;-81
2022/01/27 03:32:06;;;;;;;21.38;10.07;;;;;;;3.77;72.59;100859.25;4956281;29;20035;-81
2022/01/27 03:34:33;;;;;;;23.25;10.52;;;;;;;3.89;72.05;100856.69;4957946;28;20078;-80
2022/01/27 03:36:59;;;;;;;20.83;9.98;;;;;;;3.91;71.93;100839.34;4973103;28;20396;-80
2022/01/27 03:39:26;;;;;;;22.75;11.07;;;;;;;4.06;70.83;100834.34;4972713;28;20031;-80
2022/01/27 03:41:55;;;;;;;20.38;8.88;;;;;;;4.01;71.33;100844.06;4957664;28;20055;-81
2022/01/27 03:44:21;;;;;;;26.65;10.55;;;;;;;3.84;71.83;100828.19;4972172;28;20043;-80
2022/01/27 03:46:48;;;;;;;18.05;8.70;;;;;;;3.88;71.75;100828.94;4972335;28;20035;-81
2022/01/27 03:49:15;;;;;;;22.88;9.80;;;;;;;3.90;71.66;100832.91;4940724;29;20027;-82
2022/01/27 03:51:42;;;;;;;24.10;10.45;;;;;;;3.80;72.22;100819.75;4956171;29;20412;-81
2022/01/27 03:54:08;;;;;;;19.65;9.60;;;;;;;3.80;72.59;100828.22;4956233;29;20039;-81
2022/01/27 03:56:35;;;;;;;20.85;10.60;;;;;;;3.74;72.75;100817.84;4957670;28;20028;-80
2022/01/27 03:59:01;;;;;;;15.35;8.35;;;;;;;3.71;72.76;100819.47;4956021;29;20043;-81
2022/01/27 04:01:26;;;;;;;22.33;9.82;;;;;;;3.80;72.32;100813.31;4958035;28;20376;-81
2022/01/27 04:03:55;;;;;;;20.95;9.88;;;;;;;3.78;72.37;100815.78;4955539;29;20126;-80
2022/01/27 04:06:35;;;;;;;20.10;9.05;;;;;;;3.75;72.81;100813.81;4957161;28;20035;-81
2022/01/27 04:09:06;;;;;;;19.50;8.70;;;;;;;3.68;73.51;100811.88;4956051;29;20035;-80
2022/01/27 04:11:33;;;;;;;21.10;9.60;;;;;;;3.59;73.13;100816.41;4955595;29;20325;-80
2022/01/27 04:14:01;;;;;;;19.65;8.20;;;;;;;3.65;73.34;100809.09;4971760;28;20035;-81
2022/01/27 04:16:26;;;;;;;14.43;7.43;;;;;;;3.77;72.87;100798.06;4955349;29;20027;-80
2022/01/27 04:18:53;;;;;;;17.52;7.97;;;;;;;3.76;73.00;100792.84;4956594;28;20047;-80
2022/01/27 04:21:19;;;;;;;16.90;7.78;;;;;;;3.82;72.51;100800.44;4971781;28;20080;-80
2022/01/27 04:23:45;;;;;;;20.77;9.27;;;;;;;3.70;73.04;100792.50;4939279;29;20126;-81
2022/01/27 04:26:14;;;;;;;16.17;8.63;;;;;;;3.75;72.59;100797.69;4971470;28;20038;-81
2022/01/27 04:28:42;;;;;;;18.05;8.57;;;;;;;3.78;72.75;100793.25;4956815;28;20046;-81
2022/01/27 04:31:11;;;;;;;12.98;6.32;;;;;;;3.86;72.56;100800.38;4970904;28;20040;-80
2022/01/27 04:33:38;;;;;;;16.90;8.05;;;;;;;3.73;72.57;100799.34;4970482;28;20031;-79
2022/01/27 04:36:20;;;;;;;17.10;8.02;;;;;;;3.75;73.42;100803.31;4956256;28;20031;-80
2022/01/27 04:38:55;;;;;;;15.45;8.20;;;;;;;3.86;72.89;100787.09;4955120;29;20031;-80
2022/01/27 04:41:46;;;;;;;16.52;7.85;;;;;;;3.86;72.44;100781.44;4956154;28;20038;-78
2022/01/27 04:44:24;;;;;;;18.02;8.65;;;;;;;3.88;72.13;100762.13;4971038;28;20027;-79
2022/01/27 04:47:10;;;;;;;20.83;8.18;;;;;;;3.91;72.08;100774.56;4955542;29;20031;-79
2022/01/27 04:49:37;;;;;;;14.23;7.13;;;;;;;3.86;72.27;100761.72;4954764;29;20465;-77
2022/01/27 04:52:02;;;;;;;13.43;7.03;;;;;;;3.83;72.44;100759.78;4954790;28;20381;-79
2022/01/27 04:55:05;;;;;;;10.65;5.72;;;;;;;3.86;72.34;100760.94;4956249;28;20029;-80
2022/01/27 04:57:31;;;;;;;12.20;6.45;;;;;;;3.82;72.15;100741.25;4956033;28;20501;-80
2022/01/27 04:59:58;;;;;;;11.43;6.10;;;;;;;3.78;72.40;100753.81;4956062;29;20034;-80
2022/01/27 05:02:36;;;;;;;13.80;6.70;;;;;;;3.77;72.51;100757.81;4954843;28;20058;-79
2022/01/27 05:05:02;;;;;;;12.10;6.40;;;;;;;3.85;72.07;100743.22;4955184;29;20038;-80
2022/01/27 05:07:28;;;;;;;12.75;6.47;;;;;;;3.88;72.00;100739.56;4954866;29;20384;-79
2022/01/27 05:09:58;;;;;;;13.43;6.47;;;;;;;3.79;72.11;100733.66;4956498;28;20035;-79
2022/01/27 05:14:59;;;;;;;10.93;6.72;;;;;;;3.81;72.29;100742.47;4956008;28;20035;-78
2022/01/27 05:17:25;;;;;;;12.80;6.47;;;;;;;3.88;71.99;100742.41;4970421;28;20029;-80
2022/01/27 05:19:51;;;;;;;16.83;6.95;;;;;;;3.96;71.98;100736.66;4955721;29;20023;-80
2022/01/27 05:22:17;;;;;;;14.35;7.15;;;;;;;3.88;72.52;100739.56;4970348;28;20456;-79
2022/01/27 05:24:43;;;;;;;15.80;7.50;;;;;;;3.87;72.68;100725.91;4970426;28;20114;-79
2022/01/27 05:27:10;;;;;;;13.07;7.97;;;;;;;3.90;72.89;100734.31;4970708;28;20082;-81
2022/01/27 05:29:35;;;;;;;13.68;6.95;;;;;;;3.86;72.71;100729.94;4954562;28;20039;-81
2022/01/27 05:32:02;;;;;;;11.63;6.85;;;;;;;3.86;72.60;100721.47;4956371;28;20049;-81
2022/01/27 05:34:28;;;;;;;15.63;7.88;;;;;;;3.85;72.91;100723.50;4954525;29;20039;-80
2022/01/27 05:36:53;;;;;;;19.45;8.23;;;;;;;3.92;72.85;100722.63;4970633;28;20038;-80
2022/01/27 05:39:20;;;;;;;14.85;8.18;;;;;;;3.96;72.41;100729.00;4955733;28;20031;-80
2022/01/27 05:41:46;;;;;;;16.38;8.85;;;;;;;3.97;72.69;100715.72;4970323;28;20182;-81
2022/01/27 05:44:14;;;;;;;19.10;10.43;;;;;;;3.96;72.47;100709.28;4953955;28;20166;-80
2022/01/27 05:46:40;;;;;;;17.25;7.65;;;;;;;3.91;72.83;100707.72;4954223;29;20122;-81
2022/01/27 05:49:05;;;;;;;18.52;8.45;;;;;;;3.96;72.75;100716.94;4970241;28;20106;-80
2022/01/27 05:51:31;;;;;;;12.68;6.90;;;;;;;4.01;72.25;100716.44;4955081;28;20141;-78
2022/01/27 05:53:57;;;;;;;11.00;5.93;;;;;;;4.04;72.14;100705.16;4955293;28;20113;-80
2022/01/27 05:56:23;;;;;;;11.40;6.00;;;;;;;4.00;72.41;100692.31;4953850;29;20469;-79
2022/01/27 05:58:50;;;;;;;14.13;6.43;;;;;;;4.05;71.87;100694.66;4969700;28;20090;-79
2022/01/27 06:01:16;;;;;;;11.88;6.00;;;;;;;4.05;71.64;100684.19;4953710;29;20027;-80
2022/01/27 06:03:43;;;;;;;13.75;6.15;;;;;;;4.01;70.78;100679.81;4953867;29;20019;-79
2022/01/27 06:06:09;;;;;;;11.95;5.80;;;;;;;3.90;70.70;100696.88;4954062;29;20062;-80
2022/01/27 06:08:36;;;;;;;10.05;5.30;;;;;;;3.86;71.25;100705.38;4953855;29;20035;-79
2022/01/27 06:11:02;;;;;;;9.27;6.00;;;;;;;3.75;70.86;100704.72;4953740;29;20042;-79
2022/01/27 06:13:28;;;;;;;12.18;6.30;;;;;;;3.82;70.67;100710.28;4955277;28;20023;-79
2022/01/27 06:15:53;;;;;;;13.73;5.80;;;;;;;3.79;70.76;100710.31;4953959;29;20444;-80
2022/01/27 06:18:20;;;;;;;11.27;5.35;;;;;;;3.69;70.54;100700.00;4970122;28;20457;-80
2022/01/27 06:20:47;;;;;;;14.55;6.07;;;;;;;3.74;70.69;100708.78;4970008;28;20496;-77
2022/01/27 06:23:13;;;;;;;11.30;5.80;;;;;;;3.69;70.92;100712.06;4954016;29;20396;-77
2022/01/27 06:25:40;;;;;;;11.35;6.15;;;;;;;3.71;71.17;100711.63;4937861;29;20035;-78
2022/01/27 06:28:06;;;;;;;13.27;6.35;;;;;;;3.83;71.00;100717.50;4969648;28;20457;-78
2022/01/27 06:30:34;;;;;;;14.13;7.18;;;;;;;3.82;71.25;100701.03;4938018;29;20062;-79
2022/01/27 06:33:02;;;;;;;12.38;6.55;;;;;;;3.83;71.09;100697.00;4953531;28;20499;-78
2022/01/27 06:35:29;;;;;;;17.80;7.10;;;;;;;3.89;71.09;100709.38;4937782;29;20421;-79
2022/01/27 06:38:03;;;;;;;12.90;6.70;;;;;;;3.84;70.79;100696.56;4936884;29;20079;-77
2022/01/27 06:40:31;;;;;;;14.65;6.63;;;;;;;3.86;71.21;100688.47;4954805;28;20473;-77
2022/01/27 06:42:58;;;;;;;12.40;6.80;;;;;;;3.92;70.87;100672.69;4954721;28;20055;-76
2022/01/27 06:45:32;;;;;;;11.77;6.00;;;;;;;4.04;70.50;100693.06;4954567;28;20380;-76
2022/01/27 06:47:58;;;;;;;14.02;7.07;;;;;;;4.03;70.01;100691.47;4953691;29;20023;-80
2022/01/27 06:50:23;;;;;;;12.60;7.10;;;;;;;4.03;69.68;100705.56;4951581;28;20497;-78
2022/01/27 06:52:51;;;;;;;12.07;6.45;;;;;;;3.98;70.59;100689.13;4954218;28;20098;-78
2022/01/27 06:55:18;;;;;;;15.30;6.90;;;;;;;3.97;70.29;100691.16;4953086;28;20035;-79
2022/01/27 06:57:46;;;;;;;15.48;8.10;;;;;;;3.91;70.42;100687.19;4957369;28;20030;-78
2022/01/27 07:00:13;;;;;;;15.15;7.63;;;;;;;4.02;70.66;100687.06;4956797;28;20028;-82
2022/01/27 07:02:38;;;;;;;14.50;7.75;;;;;;;4.17;69.54;100682.81;4956558;29;20023;-85
2022/01/27 07:05:04;;;;;;;16.70;8.32;;;;;;;4.00;69.63;100679.00;4956814;29;20028;-82
2022/01/27 07:07:29;;;;;;;14.40;7.35;;;;;;;3.90;69.60;100680.75;4956515;29;20019;-81
2022/01/27 07:09:54;;;;;;;14.43;7.70;;;;;;;3.89;70.34;100664.31;4956452;29;20109;-83
2022/01/27 07:12:22;;;;;;;14.57;7.05;;;;;;;4.03;69.94;100677.38;4956567;29;20093;-81
2022/01/27 07:14:47;;;;;;;15.48;7.90;;;;;;;4.04;70.61;100676.16;4950273;28;20469;-76
2022/01/27 07:17:14;;;;;;;16.45;8.50;;;;;;;4.16;69.94;100673.53;4954160;28;20038;-78
2022/01/27 07:19:40;;;;;;;21.25;8.80;;;;;;;4.15;69.51;100666.31;4956316;28;20102;-78
2022/01/27 07:22:05;;;;;;;16.48;8.30;;;;;;;4.18;69.03;100659.03;4956130;29;20110;-82
2022/01/27 07:24:30;;;;;;;17.63;8.45;;;;;;;4.01;69.70;100623.47;4954182;29;20039;-85
2022/01/27 07:26:56;;;;;;;16.67;8.07;;;;;;;4.13;69.61;100640.59;4954118;28;20413;-81
2022/01/27 07:29:22;;;;;;;23.40;9.75;;;;;;;4.11;69.29;100630.94;4953483;28;20042;-80
2022/01/27 07:31:47;;;;;;;15.90;8.55;;;;;;;4.18;69.87;100634.47;4953086;28;20035;-76
2022/01/27 07:34:14;;;;;;;16.13;8.00;;;;;;;4.14;69.10;100630.91;4947259;29;20681;-78
2022/01/27 07:36:40;;;;;;;17.02;8.43;;;;;;;4.06;69.96;100635.03;4954268;29;20038;-81
2022/01/27 07:39:12;;;;;;;20.48;8.65;;;;;;;4.14;69.66;100645.00;4954431;28;20106;-78
2022/01/27 07:41:38;;;;;;;15.85;8.48;;;;;;;4.22;69.70;100635.19;4955143;29;20101;-81
2022/01/27 07:44:03;;;;;;;20.55;9.90;;;;;;;4.32;69.79;100637.03;4954515;28;20464;-78
2022/01/27 07:46:28;;;;;;;16.23;8.82;;;;;;;4.37;69.52;100632.13;4958706;28;20031;-76
2022/01/27 07:48:54;;;;;;;21.27;9.52;;;;;;;4.41;69.56;100636.50;4956467;28;20024;-78
2022/01/27 07:51:22;;;;;;;17.27;9.63;;;;;;;4.34;68.60;100616.88;4954609;28;20077;-75
2022/01/27 07:53:49;;;;;;;20.80;9.88;;;;;;;4.12;68.98;100605.16;4982435;23;20279;-83
2022/01/27 07:56:14;;;;;;;18.40;8.93;;;;;;;4.18;69.21;100609.09;4972066;28;20118;-77
2022/01/27 07:58:42;;;;;;;21.52;10.27;;;;;;;4.24;68.88;100596.09;4976638;28;20169;-78
2022/01/27 08:01:08;;;;;;;20.88;8.85;;;;;;;4.17;67.60;100593.41;4979989;28;20036;-78
2022/01/27 08:03:37;;;;;;;23.77;10.00;;;;;;;4.15;68.22;100576.09;4993765;28;20109;-79
2022/01/27 08:06:06;;;;;;;19.40;10.15;;;;;;;4.26;68.57;100593.66;4994048;28;20026;-78
2022/01/27 08:08:33;;;;;;;24.75;10.68;;;;;;;4.16;68.69;100603.06;4995381;28;20019;-78
2022/01/27 08:10:58;;;;;;;21.27;11.45;;;;;;;4.03;68.77;100596.47;5011188;28;20387;-76
2022/01/27 08:13:24;;;;;;;18.50;9.73;;;;;;;3.94;68.02;100579.31;4995185;28;20029;-76
2022/01/27 08:15:50;;;;;;;21.27;11.20;;;;;;;3.99;69.42;100609.81;4996689;28;20033;-78
2022/01/27 08:18:15;;;;;;;18.58;10.80;;;;;;;4.00;69.41;100607.75;4978834;28;20041;-82
2022/01/27 08:20:41;;;;;;;26.80;11.80;;;;;;;4.02;68.83;100589.22;4978349;28;20469;-79
2022/01/27 08:23:06;;;;;;;23.63;11.70;;;;;;;4.10;69.45;100613.22;4980040;28;20034;-78
2022/01/27 08:25:33;;;;;;;26.42;10.45;;;;;;;4.07;69.04;100594.38;4994105;28;20044;-75
2022/01/27 08:28:02;;;;;;;21.30;10.35;;;;;;;4.10;69.10;100599.16;4993708;28;20030;-77
2022/01/27 08:30:35;;;;;;;24.45;11.27;;;;;;;4.15;69.01;100587.38;4995152;28;20515;-77
2022/01/27 08:33:05;;;;;;;26.95;11.40;;;;;;;4.17;68.80;100570.84;5009539;28;20464;-76
2022/01/27 08:35:32;;;;;;;23.80;10.77;;;;;;;4.32;68.79;100574.22;4994813;28;20026;-76
2022/01/27 08:37:57;;;;;;;28.15;11.52;;;;;;;4.29;67.47;100566.63;4958001;28;20428;-75
2022/01/27 08:40:23;;;;;;;22.45;11.25;;;;;;;4.33;68.41;100565.34;4975182;28;20491;-74
2022/01/27 08:42:48;;;;;;;24.65;10.93;;;;;;;4.34;67.46;100555.63;4990240;28;20030;-80
2022/01/27 08:45:16;;;;;;;25.42;11.02;;;;;;;4.30;67.47;100565.38;4974068;28;20088;-83
2022/01/27 08:47:43;;;;;;;23.90;10.43;;;;;;;4.26;68.04;100571.09;4974435;28;20027;-78
2022/01/27 08:50:11;;;;;;;25.10;11.35;;;;;;;4.28;67.80;100554.56;4991094;28;20031;-83
2022/01/27 08:52:38;;;;;;;18.60;10.07;;;;;;;4.37;67.56;100541.91;4990564;28;20034;-82
2022/01/27 08:55:06;;;;;;;19.73;10.02;;;;;;;4.33;66.55;100539.16;4990395;28;20046;-72
2022/01/27 08:57:32;;;;;;;22.08;11.18;;;;;;;4.46;66.94;100542.13;4990563;28;20035;-79
2022/01/27 09:00:07;;;;;;;26.05;10.63;;;;;;;4.64;66.90;100545.41;4980200;28;20030;-79
2022/01/27 09:02:41;;;;;;;25.95;10.68;;;;;;;4.79;66.18;100539.06;4978122;28;20034;-77
2022/01/27 09:05:08;;;;;;;19.65;11.07;;;;;;;4.76;65.87;100517.34;4996018;28;20479;-80
2022/01/27 09:07:36;;;;;;;23.88;11.35;;;;;;;4.97;65.79;100523.78;4994509;28;20023;-76
2022/01/27 09:10:03;;;;;;;22.05;10.48;;;;;;;5.07;65.67;100517.13;4991942;28;20037;-77
2022/01/27 09:12:28;;;;;;;24.55;11.27;;;;;;;5.16;64.99;100515.31;4992941;28;20050;-74
2022/01/27 09:14:54;;;;;;;28.20;11.70;;;;;;;5.41;64.86;100514.75;4994117;28;20069;-70
2022/01/27 09:17:25;;;;;;;23.85;12.35;;;;;;;5.45;63.84;100520.28;4992489;28;20121;-76
2022/01/27 09:19:50;;;;;;;26.58;12.45;;;;;;;5.51;63.72;100516.53;4991831;28;20034;-75
2022/01/27 09:22:18;;;;;;;23.42;12.02;;;;;;;5.63;63.96;100510.16;4992906;28;20026;-80
2022/01/27 09:24:58;;;;;;;24.15;11.48;;;;;;;5.84;63.64;100511.69;4993250;28;20057;-79
2022/01/27 09:27:25;;;;;;;24.75;12.45;;;;;;;5.86;63.32;100497.91;4977431;28;20033;-79
2022/01/27 09:29:52;;;;;;;26.05;12.23;;;;;;;5.90;63.54;100507.13;4977485;28;20565;-82
2022/01/27 09:32:18;;;;;;;25.05;12.32;;;;;;;5.98;62.48;100510.56;4991874;28;20030;-82
2022/01/27 09:34:44;;;;;;;23.10;11.80;;;;;;;5.91;62.61;100500.25;4991908;28;20022;-79
2022/01/27 09:37:10;;;;;;;26.55;12.60;;;;;;;5.95;62.76;100483.97;4975515;28;20530;-79
2022/01/27 09:39:36;;;;;;;24.95;12.68;;;;;;;5.86;61.61;100482.97;4974556;28;20030;-80
2022/01/27 09:42:03;;;;;;;26.17;12.30;;;;;;;5.80;62.46;100465.75;4973060;28;20111;-76
2022/01/27 09:44:31;;;;;;;25.77;12.43;;;;;;;5.82;62.10;100480.22;4973950;28;20037;-75
2022/01/27 09:47:03;;;;;;;29.27;13.02;;;;;;;5.63;62.40;100439.53;4988683;28;20065;-76
2022/01/27 09:52:26;;;;;;;28.00;12.75;;;;;;;6.05;60.89;100451.81;4972650;28;20115;-76
2022/01/27 09:54:52;;;;;;;27.27;12.38;;;;;;;5.97;61.85;100438.31;4984696;28;20129;-81
2022/01/27 09:57:17;;;;;;;25.45;13.32;;;;;;;6.00;61.57;100435.38;4993459;28;20037;-81
2022/01/27 09:59:44;;;;;;;27.33;12.43;;;;;;;5.91;61.99;100421.09;4993742;28;20027;-77
2022/01/27 10:02:14;;;;;;;31.35;13.95;;;;;;;5.99;61.37;100413.19;4993930;28;20022;-82
2022/01/27 10:04:44;;;;;;;25.95;12.40;;;;;;;6.16;61.61;100409.09;4993108;28;20037;-78
2022/01/27 10:07:15;;;;;;;28.33;12.98;;;;;;;6.12;61.47;100427.41;4993337;28;20064;-83
2022/01/27 10:10:11;;;;;;;27.38;12.45;;;;;;;5.93;61.22;100412.94;4993870;28;20113;-76
2022/01/27 10:12:44;;;;;;;31.85;13.38;;;;;;;6.06;61.59;100415.84;4994137;28;20030;-71
2022/01/27 10:15:19;;;;;;;27.48;12.77;;;;;;;5.99;62.51;100419.66;4993748;28;20053;-71
2022/01/27 10:18:06;;;;;;;27.50;12.48;;;;;;;5.88;62.52;100424.00;4993620;28;20034;-75
2022/01/27 10:20:33;;;;;;;28.35;13.88;;;;;;;5.77;62.74;100424.25;4993938;28;20030;-77
2022/01/27 10:23:19;;;;;;;31.00;16.38;;;;;;;5.56;62.42;100416.31;4992685;28;20065;-80
2022/01/27 10:25:55;;;;;;;36.15;15.57;;;;;;;5.53;64.02;100417.19;4992130;28;20031;-79
2022/01/27 10:28:43;;;;;;;24.38;13.80;;;;;;;5.58;63.77;100411.00;4975911;28;20080;-75
2022/01/27 10:31:11;;;;;;;27.45;13.18;;;;;;;5.69;63.50;100396.63;4992814;28;20037;-78
2022/01/27 10:33:49;;;;;;;28.55;14.65;;;;;;;5.76;63.65;100399.25;4995791;28;20456;-77
2022/01/27 10:36:21;;;;;;;23.08;12.60;;;;;;;5.74;63.26;100390.44;4996968;28;20042;-73
2022/01/27 10:38:49;;;;;;;28.20;12.82;;;;;;;5.77;63.47;100384.69;4997194;28;20030;-76
2022/01/27 10:41:15;;;;;;;27.95;13.73;;;;;;;5.95;63.38;100376.56;4960120;28;20043;-76
2022/01/27 10:43:42;;;;;;;29.02;15.45;;;;;;;6.08;62.80;100380.22;4960030;28;20060;-77
2022/01/27 10:46:28;;;;;;;29.52;13.70;;;;;;;6.05;62.25;100375.47;4976044;28;20057;-74
2022/01/27 10:49:03;;;;;;;25.73;14.10;;;;;;;6.05;63.43;100371.84;4985358;28;20499;-77
2022/01/27 10:51:38;;;;;;;29.60;13.52;;;;;;;6.01;63.05;100354.19;4995788;28;20105;-77
2022/01/27 10:56:33;;;;;;;25.58;13.07;;;;;;;6.00;62.72;100341.28;4996584;28;20030;-80
2022/01/27 10:59:01;;;;;;;31.02;14.13;;;;;;;5.93;63.35;100347.94;4997055;28;20052;-83
2022/01/27 11:01:33;;;;;;;25.85;13.30;;;;;;;5.92;63.90;100343.50;4979235;28;20022;-79
2022/01/27 11:04:01;;;;;;;26.27;12.73;;;;;;;5.95;63.87;100322.84;4995372;28;20026;-84
2022/01/27 11:06:28;;;;;;;24.88;11.57;;;;;;;6.06;63.10;100329.00;4979793;28;20475;-82
2022/01/27 11:08:56;;;;;;;19.92;10.13;;;;;;;6.01;63.47;100337.22;4979549;28;20026;-75
2022/01/27 11:11:25;;;;;;;27.73;11.50;;;;;;;5.85;65.00;100329.56;4995353;28;20022;-76
2022/01/27 11:13:52;;;;;;;24.45;11.40;;;;;;;5.93;65.60;100341.47;4995103;28;20026;-75
2022/01/27 11:16:40;;;;;;;25.30;11.38;;;;;;;6.18;63.92;100332.28;4980624;28;20062;-73
2022/01/27 11:22:04;;;;;;;22.98;11.35;;;;;;;5.69;67.68;100326.78;5014676;28;20046;-86
2022/01/27 11:27:23;;;;;;;27.67;12.32;;;;;;;5.38;69.50;100317.13;4982194;28;20045;-77
2022/01/27 11:30:02;;;;;;;26.00;12.57;;;;;;;5.26;70.39;100315.81;4994724;28;20041;-78
2022/01/27 11:32:46;;;;;;;31.35;14.68;;;;;;;5.18;70.00;100303.91;4996510;28;20034;-83
2022/01/27 11:35:17;;;;;;;31.25;15.30;;;;;;;5.27;70.25;100299.66;5002215;28;20045;-81
2022/01/27 11:37:48;;;;;;;27.60;12.32;;;;;;;5.36;70.76;100309.09;4984363;28;20125;-80
2022/01/27 11:40:14;;;;;;;30.00;13.45;;;;;;;5.45;71.32;100291.50;4999259;28;20030;-78
2022/01/27 11:42:44;;;;;;;36.85;16.50;;;;;;;5.62;70.29;100281.78;5006008;28;20468;-82
2022/01/27 11:45:30;;;;;;;33.78;13.85;;;;;;;5.53;70.82;100273.13;5000062;28;20041;-81
2022/01/27 11:47:58;;;;;;;27.42;12.82;;;;;;;5.41;70.83;100271.84;4980325;28;20057;-78
2022/01/27 11:50:35;;;;;;;41.20;17.83;;;;;;;5.44;70.96;100259.66;4981213;28;20149;-75
2022/01/27 11:53:07;;;;;;;29.85;13.52;;;;;;;5.41;70.32;100262.59;4988810;28;20038;-76
2022/01/27 11:55:34;;;;;;;30.27;15.35;;;;;;;5.36;70.45;100258.28;4977982;28;20030;-75
2022/01/27 11:58:12;;;;;;;31.25;13.43;;;;;;;5.36;71.07;100266.75;4995649;28;20030;-79
2022/01/27 12:00:39;;;;;;;31.52;13.30;;;;;;;5.28;71.49;100256.09;4995677;28;20026;-78
2022/01/27 12:03:13;;;;;;;31.73;13.13;;;;;;;5.31;71.90;100256.00;4994261;28;20109;-81
2022/01/27 12:06:05;;;;;;;38.60;15.13;;;;;;;5.29;71.61;100257.66;4994660;28;20030;-77
2022/01/27 12:08:31;;;;;;;31.38;15.15;;;;;;;5.16;71.88;100233.00;4995778;28;20033;-78
2022/01/27 12:11:00;;;;;;;32.70;14.57;;;;;;;5.42;71.59;100252.88;4994141;28;20184;-78
2022/01/27 12:13:39;;;;;;;33.65;16.25;;;;;;;5.28;72.27;100251.22;4995457;28;20032;-79
2022/01/27 12:19:12;;;;;;;35.20;15.25;;;;;;;5.19;72.85;100253.88;4995748;28;20041;-78
2022/01/27 12:22:00;;;;;;;33.42;14.75;;;;;;;5.00;74.12;100206.81;4994005;28;20032;-80
2022/01/27 12:24:29;;;;;;;32.55;14.73;;;;;;;5.30;73.60;100243.09;4995395;28;20014;-80
2022/01/27 12:27:08;;;;;;;37.97;17.83;;;;;;;5.18;74.61;100221.25;4993990;28;20026;-72
2022/01/27 12:29:43;;;;;;;41.97;18.05;;;;;;;5.05;75.18;100220.38;4993603;28;20495;-73